Time;durP1;ratioP1;P1;durP2;ratioP2;P2;SDS_P1;SDS_P2;PMS_P1;PMS_P2;Temp;Humidity;BMP_temperature;BMP_pressure;BME280_temperature;BME280_humidity;BME280_pressure;Samples;Min_cycle;Max_cycle;Signal;HPM_P1;HPM_P2
2021/12/09 00:02:25;;;;;;;15.60;9.35;;;;;;;;;;5115888;27;20104;-77
2021/12/09 00:04:54;;;;;;;21.65;9.45;;;;;;;;;;5134683;27;20054;-77
2021/12/09 00:07:20;;;;;;;15.43;8.88;;;;;;;;;;5134669;27;20049;-78
2021/12/09 00:09:46;;;;;;;18.05;9.18;;;;;;;;;;5134724;27;20122;-77
2021/12/09 00:12:12;;;;;;;17.23;9.57;;;;;;;;;;5116628;27;20100;-76
2021/12/09 00:14:38;;;;;;;19.35;9.35;;;;;;;;;;5134687;27;20122;-76
2021/12/09 00:17:06;;;;;;;16.55;9.10;;;;;;;;;;5134483;27;20449;-76
2021/12/09 00:19:33;;;;;;;20.55;9.85;;;;;;;;;;5116524;27;20091;-77
2021/12/09 00:21:59;;;;;;;18.33;9.25;;;;;;;;;;5134377;27;20050;-77
2021/12/09 00:24:26;;;;;;;17.15;9.30;;;;;;;;;;5134575;27;20052;-78
2021/12/09 00:26:52;;;;;;;21.25;9.70;;;;;;;;;;5116375;27;20499;-77
2021/12/09 00:29:18;;;;;;;17.85;9.82;;;;;;;;;;5134489;27;20105;-77
2021/12/09 00:31:45;;;;;;;21.55;10.27;;;;;;;;;;5134353;27;20097;-76
2021/12/09 00:34:11;;;;;;;15.82;9.77;;;;;;;;;;5115965;27;20042;-78
2021/12/09 00:36:41;;;;;;;16.65;9.88;;;;;;;;;;5115823;27;20517;-77
2021/12/09 00:39:09;;;;;;;18.73;10.27;;;;;;;;;;5134273;27;20416;-76
2021/12/09 00:41:35;;;;;;;18.55;10.23;;;;;;;;;;5134338;27;20046;-78
2021/12/09 00:44:01;;;;;;;18.17;9.82;;;;;;;;;;5134132;27;20043;-76
2021/12/09 00:46:27;;;;;;;18.70;10.15;;;;;;;;;;5134029;27;20078;-77
2021/12/09 00:48:53;;;;;;;25.13;10.90;;;;;;;;;;5115789;27;20046;-77
2021/12/09 00:51:20;;;;;;;19.65;11.10;;;;;;;;;;5134181;27;20042;-77
2021/12/09 00:53:46;;;;;;;19.10;10.30;;;;;;;;;;5115785;27;20075;-77
2021/12/09 00:56:13;;;;;;;20.60;10.20;;;;;;;;;;5115665;27;20464;-76
2021/12/09 00:58:40;;;;;;;24.88;10.60;;;;;;;;;;5133827;27;20377;-78
2021/12/09 01:01:07;;;;;;;17.45;11.38;;;;;;;;;;5133720;27;20130;-77
2021/12/09 01:03:34;;;;;;;25.48;10.95;;;;;;;;;;5133641;27;20047;-77
2021/12/09 01:06:00;;;;;;;21.50;11.00;;;;;;;;;;5133843;27;20468;-77
2021/12/09 01:08:26;;;;;;;23.70;11.70;;;;;;;;;;5133852;27;20043;-77
2021/12/09 01:10:52;;;;;;;19.08;10.55;;;;;;;;;;5115404;27;20039;-77
2021/12/09 01:13:19;;;;;;;20.33;11.20;;;;;;;;;;5133709;27;20472;-77
2021/12/09 01:15:45;;;;;;;18.60;10.95;;;;;;;;;;5133561;27;20042;-78
2021/12/09 01:18:11;;;;;;;23.33;11.63;;;;;;;;;;5133422;27;20039;-77
2021/12/09 01:20:37;;;;;;;20.45;11.65;;;;;;;;;;5098126;28;20050;-77
2021/12/09 01:23:03;;;;;;;22.77;12.00;;;;;;;;;;5115476;28;20099;-77
2021/12/09 01:25:37;;;;;;;24.25;11.90;;;;;;;;;;5133478;28;20400;-77
2021/12/09 01:28:04;;;;;;;18.60;12.02;;;;;;;;;;5098405;28;20452;-78
2021/12/09 01:30:30;;;;;;;23.92;11.52;;;;;;;;;;5133451;28;20086;-77
2021/12/09 01:32:57;;;;;;;23.27;11.98;;;;;;;;;;5098691;28;20042;-78
2021/12/09 01:35:25;;;;;;;23.52;11.95;;;;;;;;;;5133628;28;20043;-77
2021/12/09 01:37:56;;;;;;;22.98;11.10;;;;;;;;;;5133506;28;20051;-77
2021/12/09 01:40:24;;;;;;;20.25;12.18;;;;;;;;;;5115143;28;20101;-77
2021/12/09 01:42:51;;;;;;;19.50;11.80;;;;;;;;;;5133308;28;20043;-77
2021/12/09 01:45:17;;;;;;;23.95;12.77;;;;;;;;;;5133238;28;20426;-77
2021/12/09 01:47:43;;;;;;;22.95;12.20;;;;;;;;;;5115267;28;20043;-77
2021/12/09 01:50:10;;;;;;;21.00;12.20;;;;;;;;;;5135780;27;20050;-78
2021/12/09 01:52:36;;;;;;;22.80;12.35;;;;;;;;;;5137540;27;20039;-77
2021/12/09 01:55:03;;;;;;;24.13;12.75;;;;;;;;;;5119182;27;20049;-77
2021/12/09 01:57:30;;;;;;;18.17;11.98;;;;;;;;;;5137273;27;20095;-77
2021/12/09 01:59:56;;;;;;;23.60;12.73;;;;;;;;;;5137043;27;20043;-77
2021/12/09 02:02:22;;;;;;;25.15;12.75;;;;;;;;;;5115249;28;20495;-78
2021/12/09 02:04:48;;;;;;;23.23;13.27;;;;;;;;;;5115216;28;20392;-77
2021/12/09 02:07:15;;;;;;;22.38;13.05;;;;;;;;;;5116704;28;20040;-77
2021/12/09 02:09:41;;;;;;;22.92;13.25;;;;;;;;;;5115579;28;20044;-76
2021/12/09 02:12:07;;;;;;;26.48;13.43;;;;;;;;;;5115499;28;20073;-77
2021/12/09 02:14:33;;;;;;;25.25;13.38;;;;;;;;;;5116407;28;20039;-78
2021/12/09 02:17:05;;;;;;;24.15;13.38;;;;;;;;;;5115346;28;20044;-78
2021/12/09 02:19:31;;;;;;;26.95;13.68;;;;;;;;;;5115225;28;20035;-78
2021/12/09 02:21:58;;;;;;;28.33;14.10;;;;;;;;;;5116405;27;20423;-77
2021/12/09 02:24:24;;;;;;;22.45;13.50;;;;;;;;;;5116311;27;20118;-77
2021/12/09 02:26:50;;;;;;;30.13;15.00;;;;;;;;;;5116123;28;20169;-77
2021/12/09 02:29:17;;;;;;;26.77;14.85;;;;;;;;;;5115071;28;20044;-77
2021/12/09 02:31:43;;;;;;;22.52;13.50;;;;;;;;;;5116373;28;20059;-78
2021/12/09 02:34:10;;;;;;;27.45;14.27;;;;;;;;;;5116205;28;20040;-77
2021/12/09 02:36:40;;;;;;;24.42;14.35;;;;;;;;;;5115095;28;20422;-77
2021/12/09 02:39:07;;;;;;;25.20;14.23;;;;;;;;;;5115838;28;20040;-77
2021/12/09 02:41:35;;;;;;;26.65;14.63;;;;;;;;;;5114832;28;20082;-77
2021/12/09 02:44:03;;;;;;;29.70;14.40;;;;;;;;;;5114929;28;20047;-77
2021/12/09 02:46:35;;;;;;;28.75;15.55;;;;;;;;;;5116001;28;20047;-78
2021/12/09 02:49:01;;;;;;;23.75;15.07;;;;;;;;;;5097796;28;20047;-77
2021/12/09 02:51:27;;;;;;;26.70;14.82;;;;;;;;;;5114807;28;20043;-78
2021/12/09 02:53:53;;;;;;;29.33;14.02;;;;;;;;;;5115933;28;20389;-77
2021/12/09 02:56:20;;;;;;;26.48;15.00;;;;;;;;;;5114846;28;20126;-77
2021/12/09 02:58:46;;;;;;;31.42;15.27;;;;;;;;;;5115671;28;20040;-78
2021/12/09 03:01:21;;;;;;;26.17;14.27;;;;;;;;;;5113118;28;20047;-77
2021/12/09 03:03:54;;;;;;;32.80;16.23;;;;;;;;;;5114255;28;20381;-77
2021/12/09 03:06:22;;;;;;;33.97;16.92;;;;;;;;;;5114309;28;20047;-78
2021/12/09 03:08:48;;;;;;;27.77;15.05;;;;;;;;;;5115546;28;20047;-77
2021/12/09 03:11:16;;;;;;;31.50;15.63;;;;;;;;;;5115513;28;20039;-77
2021/12/09 03:13:44;;;;;;;25.52;15.25;;;;;;;;;;5115412;27;20130;-78
2021/12/09 03:16:10;;;;;;;28.75;16.10;;;;;;;;;;5115333;28;20392;-78
2021/12/09 03:18:44;;;;;;;26.52;14.68;;;;;;;;;;5115259;28;20035;-78
2021/12/09 03:21:17;;;;;;;27.20;15.75;;;;;;;;;;5115149;28;20127;-78
2021/12/09 03:23:43;;;;;;;30.48;15.27;;;;;;;;;;5115261;28;20036;-77
2021/12/09 03:26:09;;;;;;;24.23;16.05;;;;;;;;;;5114305;28;20126;-78
2021/12/09 03:28:35;;;;;;;31.42;16.52;;;;;;;;;;5097216;28;20092;-78
2021/12/09 03:31:01;;;;;;;28.80;16.25;;;;;;;;;;5114967;28;20123;-77
2021/12/09 03:33:27;;;;;;;31.33;16.92;;;;;;;;;;5113939;28;20550;-78
2021/12/09 03:36:01;;;;;;;29.65;17.15;;;;;;;;;;5115015;28;20043;-77
2021/12/09 03:38:28;;;;;;;30.27;15.98;;;;;;;;;;5114819;28;20552;-78
2021/12/09 03:40:54;;;;;;;32.72;16.52;;;;;;;;;;5114767;28;20052;-77
2021/12/09 03:43:21;;;;;;;30.15;16.88;;;;;;;;;;5114812;28;20122;-78
2021/12/09 03:45:48;;;;;;;28.08;15.15;;;;;;;;;;5114561;28;20039;-77
2021/12/09 03:48:15;;;;;;;33.60;16.50;;;;;;;;;;5113396;28;20806;-78
2021/12/09 03:50:43;;;;;;;26.30;15.82;;;;;;;;;;5113679;28;20039;-77
2021/12/09 03:53:09;;;;;;;33.00;17.17;;;;;;;;;;5113496;28;20047;-77
2021/12/09 03:55:35;;;;;;;31.77;16.50;;;;;;;;;;5113498;28;20049;-77
2021/12/09 03:58:01;;;;;;;27.50;17.05;;;;;;;;;;5114455;28;20039;-77
2021/12/09 04:00:28;;;;;;;35.90;17.00;;;;;;;;;;5114319;28;20040;-77
2021/12/09 04:02:55;;;;;;;33.38;16.63;;;;;;;;;;5112723;28;20488;-78
2021/12/09 04:05:21;;;;;;;30.60;17.35;;;;;;;;;;5114428;28;20121;-78
2021/12/09 04:07:47;;;;;;;28.13;17.27;;;;;;;;;;5113328;28;20055;-78
2021/12/09 04:10:13;;;;;;;32.58;17.33;;;;;;;;;;5114194;28;20122;-77
2021/12/09 04:12:39;;;;;;;31.00;16.90;;;;;;;;;;5113806;28;20442;-77
2021/12/09 04:15:06;;;;;;;28.77;16.45;;;;;;;;;;5114000;28;20079;-77
2021/12/09 04:17:32;;;;;;;31.02;18.20;;;;;;;;;;5114177;28;20039;-78
2021/12/09 04:19:58;;;;;;;36.03;17.70;;;;;;;;;;5112734;28;20100;-78
2021/12/09 04:22:25;;;;;;;33.90;18.15;;;;;;;;;;5113003;28;20507;-77
2021/12/09 04:24:52;;;;;;;37.25;17.98;;;;;;;;;;5112979;28;20104;-78
2021/12/09 04:27:19;;;;;;;34.78;17.70;;;;;;;;;;5113984;28;20173;-77
2021/12/09 04:29:45;;;;;;;34.35;17.40;;;;;;;;;;5095785;28;20426;-76
2021/12/09 04:32:11;;;;;;;34.72;17.50;;;;;;;;;;5113976;28;20043;-77
2021/12/09 04:34:37;;;;;;;34.97;18.15;;;;;;;;;;5113964;28;20039;-78
2021/12/09 04:37:04;;;;;;;36.55;18.58;;;;;;;;;;5114140;28;20051;-77
2021/12/09 04:39:30;;;;;;;33.92;17.48;;;;;;;;;;5113705;28;20040;-78
2021/12/09 04:41:56;;;;;;;30.25;18.35;;;;;;;;;;5112630;28;20130;-78
2021/12/09 04:44:23;;;;;;;38.63;19.20;;;;;;;;;;5112501;28;20050;-76
2021/12/09 04:46:49;;;;;;;35.10;18.25;;;;;;;;;;5112613;28;20046;-77
2021/12/09 04:49:16;;;;;;;36.45;19.13;;;;;;;;;;5113543;28;20036;-78
2021/12/09 04:51:42;;;;;;;34.38;19.65;;;;;;;;;;5112363;28;20040;-78
2021/12/09 04:54:08;;;;;;;33.95;18.35;;;;;;;;;;5112405;28;20043;-77
2021/12/09 04:56:35;;;;;;;31.75;18.48;;;;;;;;;;5113376;28;20480;-78
2021/12/09 04:59:02;;;;;;;35.83;18.98;;;;;;;;;;5113285;28;20043;-77
2021/12/09 05:01:29;;;;;;;33.88;18.13;;;;;;;;;;5121469;27;20051;-78
2021/12/09 05:03:55;;;;;;;32.33;19.27;;;;;;;;;;5133876;27;20082;-77
2021/12/09 05:06:21;;;;;;;35.67;19.83;;;;;;;;;;5133870;27;20051;-78
2021/12/09 05:08:48;;;;;;;40.05;20.58;;;;;;;;;;5133820;27;20050;-78
2021/12/09 05:14:01;;;;;;;39.08;21.10;;;;;;;;;;5115405;28;20078;-77
2021/12/09 05:16:28;;;;;;;33.83;20.30;;;;;;;;;;5115242;27;20521;-78
2021/12/09 05:18:58;;;;;;;35.15;20.27;;;;;;;;;;5098371;28;20122;-78
2021/12/09 05:21:29;;;;;;;33.93;20.20;;;;;;;;;;5133532;28;20479;-77
2021/12/09 05:23:56;;;;;;;38.67;20.23;;;;;;;;;;5132751;27;20336;-77
2021/12/09 05:26:26;;;;;;;38.42;20.63;;;;;;;;;;5133769;28;20482;-77
2021/12/09 05:28:55;;;;;;;37.58;21.27;;;;;;;;;;5115273;28;20082;-78
2021/12/09 05:34:07;;;;;;;33.22;20.67;;;;;;;;;;5133466;28;20137;-77
2021/12/09 05:36:34;;;;;;;34.15;20.77;;;;;;;;;;5133366;28;20043;-77
2021/12/09 05:39:00;;;;;;;34.72;21.02;;;;;;;;;;5115440;28;20488;-78
2021/12/09 05:41:26;;;;;;;35.22;21.27;;;;;;;;;;5115261;28;20043;-78
2021/12/09 05:43:53;;;;;;;38.10;21.33;;;;;;;;;;5133352;28;20043;-77
2021/12/09 05:46:20;;;;;;;37.58;21.10;;;;;;;;;;5133413;28;20043;-78
2021/12/09 05:48:46;;;;;;;36.03;20.55;;;;;;;;;;5133348;28;20504;-77
2021/12/09 05:51:12;;;;;;;38.97;22.38;;;;;;;;;;5133245;28;20047;-78
2021/12/09 05:53:38;;;;;;;34.67;22.27;;;;;;;;;;5133361;28;20043;-78
2021/12/09 05:56:05;;;;;;;41.95;22.52;;;;;;;;;;5133440;28;20043;-78
2021/12/09 05:58:31;;;;;;;39.03;22.70;;;;;;;;;;5115179;28;20508;-78
2021/12/09 06:00:57;;;;;;;42.55;22.88;;;;;;;;;;5133155;28;20066;-77
2021/12/09 06:03:24;;;;;;;40.38;22.42;;;;;;;;;;5133179;28;20047;-77
2021/12/09 06:05:51;;;;;;;40.22;22.13;;;;;;;;;;5133414;28;20500;-79
2021/12/09 06:08:17;;;;;;;44.33;22.58;;;;;;;;;;5115167;28;20051;-78
2021/12/09 06:10:43;;;;;;;40.78;21.10;;;;;;;;;;5133180;28;20042;-78
2021/12/09 06:13:09;;;;;;;41.13;22.30;;;;;;;;;;5133045;28;20043;-77
2021/12/09 06:15:35;;;;;;;42.25;23.17;;;;;;;;;;5114670;28;20436;-78
2021/12/09 06:18:01;;;;;;;41.47;22.92;;;;;;;;;;5133088;28;20039;-77
2021/12/09 06:20:28;;;;;;;45.00;23.85;;;;;;;;;;5132883;28;20081;-76
2021/12/09 06:22:54;;;;;;;43.72;22.63;;;;;;;;;;5133271;28;20043;-77
2021/12/09 06:25:21;;;;;;;47.13;23.90;;;;;;;;;;5133209;28;20047;-77
2021/12/09 06:27:48;;;;;;;43.13;23.38;;;;;;;;;;5114639;28;20046;-77
2021/12/09 06:30:14;;;;;;;42.42;23.02;;;;;;;;;;5114714;28;20432;-77
2021/12/09 06:32:41;;;;;;;47.65;22.80;;;;;;;;;;5133010;28;20043;-77
2021/12/09 06:35:07;;;;;;;42.80;22.52;;;;;;;;;;5133557;27;20587;-78
2021/12/09 06:37:38;;;;;;;49.08;23.98;;;;;;;;;;5136498;27;20480;-78
2021/12/09 06:40:04;;;;;;;39.03;23.75;;;;;;;;;;5136502;27;20100;-78
2021/12/09 06:42:30;;;;;;;47.72;23.45;;;;;;;;;;5136493;27;20051;-77
2021/12/09 06:44:56;;;;;;;43.95;24.30;;;;;;;;;;5118256;27;20039;-77
2021/12/09 06:47:22;;;;;;;43.15;24.52;;;;;;;;;;5136307;27;20039;-77
2021/12/09 06:49:50;;;;;;;47.03;25.58;;;;;;;;;;5136469;27;20043;-77
2021/12/09 06:52:16;;;;;;;49.45;24.75;;;;;;;;;;5136503;27;20050;-77
2021/12/09 06:54:42;;;;;;;45.17;24.40;;;;;;;;;;5118058;27;20540;-77
2021/12/09 06:57:08;;;;;;;45.92;25.90;;;;;;;;;;5136071;27;20118;-78
2021/12/09 06:59:35;;;;;;;50.45;25.27;;;;;;;;;;5136205;27;20357;-78
2021/12/09 07:02:01;;;;;;;42.88;25.13;;;;;;;;;;5114036;28;20061;-78
2021/12/09 07:04:27;;;;;;;46.85;26.02;;;;;;;;;;5115759;28;20056;-78
2021/12/09 07:06:53;;;;;;;42.65;25.52;;;;;;;;;;5115568;28;20043;-78
2021/12/09 07:09:21;;;;;;;45.75;25.70;;;;;;;;;;5115617;28;20040;-78
2021/12/09 07:11:51;;;;;;;46.78;25.08;;;;;;;;;;5115462;28;20481;-78
2021/12/09 07:14:18;;;;;;;53.15;26.52;;;;;;;;;;5114394;28;20116;-77
2021/12/09 07:16:44;;;;;;;45.47;25.50;;;;;;;;;;5115528;27;20122;-78
2021/12/09 07:19:10;;;;;;;48.33;26.45;;;;;;;;;;5115344;28;20523;-78
2021/12/09 07:21:36;;;;;;;51.22;27.05;;;;;;;;;;5115353;28;20104;-77
2021/12/09 07:24:03;;;;;;;52.67;25.90;;;;;;;;;;5115258;28;20036;-76
2021/12/09 07:26:30;;;;;;;49.15;25.10;;;;;;;;;;5114953;28;20050;-77
2021/12/09 07:28:56;;;;;;;49.60;26.50;;;;;;;;;;5113839;28;20078;-78
2021/12/09 07:31:24;;;;;;;48.28;25.92;;;;;;;;;;5115204;28;20357;-77
2021/12/09 07:33:50;;;;;;;44.42;25.38;;;;;;;;;;5114455;28;20084;-77
2021/12/09 07:36:17;;;;;;;54.25;25.25;;;;;;;;;;5113241;28;20086;-78
2021/12/09 07:38:45;;;;;;;46.85;25.10;;;;;;;;;;5112724;28;20092;-79
2021/12/09 07:41:12;;;;;;;49.40;24.70;;;;;;;;;;5114586;28;20092;-77
2021/12/09 07:43:38;;;;;;;47.63;23.83;;;;;;;;;;5113492;28;20036;-78
2021/12/09 07:46:04;;;;;;;42.45;23.73;;;;;;;;;;5114293;28;20043;-78
2021/12/09 07:48:31;;;;;;;49.22;25.08;;;;;;;;;;5113865;28;20051;-77
2021/12/09 07:50:57;;;;;;;46.08;24.73;;;;;;;;;;5114298;28;20039;-78
2021/12/09 07:53:23;;;;;;;47.28;24.20;;;;;;;;;;5113369;28;20039;-78
2021/12/09 07:55:54;;;;;;;43.00;23.95;;;;;;;;;;5113294;28;20362;-77
2021/12/09 07:58:20;;;;;;;47.38;24.75;;;;;;;;;;5114376;28;20085;-77
2021/12/09 08:00:46;;;;;;;44.90;23.23;;;;;;;;;;5116011;27;20497;-78
2021/12/09 08:03:14;;;;;;;45.95;23.17;;;;;;;;;;5134793;27;20065;-79
2021/12/09 08:05:41;;;;;;;52.45;24.40;;;;;;;;;;5116641;27;20043;-79
2021/12/09 08:08:07;;;;;;;45.08;23.92;;;;;;;;;;5116352;27;20078;-79
2021/12/09 08:10:34;;;;;;;50.63;23.60;;;;;;;;;;5134543;27;20038;-78
2021/12/09 08:13:01;;;;;;;45.10;23.92;;;;;;;;;;5135031;27;20043;-78
2021/12/09 08:15:29;;;;;;;46.50;23.40;;;;;;;;;;5134848;27;20135;-77
2021/12/09 08:18:02;;;;;;;49.08;22.83;;;;;;;;;;5116505;27;20038;-78
2021/12/09 08:20:28;;;;;;;40.92;23.25;;;;;;;;;;5134563;27;20039;-78
2021/12/09 08:22:55;;;;;;;46.55;22.80;;;;;;;;;;5134400;27;20042;-78
2021/12/09 08:25:22;;;;;;;48.78;22.83;;;;;;;;;;5134410;27;20080;-79
2021/12/09 08:27:49;;;;;;;43.05;22.80;;;;;;;;;;5134730;27;20046;-76
2021/12/09 08:30:18;;;;;;;46.08;23.67;;;;;;;;;;5135086;27;20408;-77
2021/12/09 08:32:44;;;;;;;48.53;22.80;;;;;;;;;;5134249;27;20083;-79
2021/12/09 08:35:10;;;;;;;47.00;24.20;;;;;;;;;;5134066;27;20050;-77
2021/12/09 08:37:37;;;;;;;47.72;23.45;;;;;;;;;;5134124;27;20502;-77
2021/12/09 08:40:05;;;;;;;42.70;22.73;;;;;;;;;;5115790;27;20046;-78
2021/12/09 08:42:31;;;;;;;42.30;23.10;;;;;;;;;;5134326;27;20035;-78
2021/12/09 08:44:57;;;;;;;41.53;23.10;;;;;;;;;;5134107;27;20545;-79
2021/12/09 08:47:23;;;;;;;40.70;22.92;;;;;;;;;;5134067;27;20042;-76
2021/12/09 08:49:49;;;;;;;41.88;22.02;;;;;;;;;;5133879;27;20552;-78
2021/12/09 08:52:16;;;;;;;38.22;20.73;;;;;;;;;;5115568;27;20047;-77
2021/12/09 08:54:42;;;;;;;43.08;21.70;;;;;;;;;;5134130;27;20051;-78
2021/12/09 08:57:10;;;;;;;36.83;21.33;;;;;;;;;;5134002;27;20043;-77
2021/12/09 08:59:37;;;;;;;40.10;20.60;;;;;;;;;;5132975;27;20042;-78
2021/12/09 09:02:03;;;;;;;36.97;19.38;;;;;;;;;;5133816;27;20157;-77
2021/12/09 09:04:29;;;;;;;34.80;19.33;;;;;;;;;;5133692;27;20039;-77
2021/12/09 09:06:56;;;;;;;38.05;20.02;;;;;;;;;;5133648;27;20035;-76
2021/12/09 09:09:25;;;;;;;33.50;19.10;;;;;;;;;;5098420;27;20043;-78
2021/12/09 09:11:51;;;;;;;35.80;18.85;;;;;;;;;;5133790;27;20043;-77
2021/12/09 09:14:17;;;;;;;33.08;18.17;;;;;;;;;;5115551;28;20049;-76
2021/12/09 09:16:43;;;;;;;32.33;18.27;;;;;;;;;;5133737;27;20082;-77
2021/12/09 09:19:10;;;;;;;31.48;18.17;;;;;;;;;;5133465;27;20035;-77
2021/12/09 09:21:37;;;;;;;32.28;18.00;;;;;;;;;;5115134;28;20429;-77
2021/12/09 09:24:03;;;;;;;30.98;16.65;;;;;;;;;;5133570;28;20061;-76
2021/12/09 09:26:30;;;;;;;30.00;17.65;;;;;;;;;;5133635;28;20043;-77
2021/12/09 09:28:57;;;;;;;35.67;18.30;;;;;;;;;;5115170;28;20043;-78
2021/12/09 09:31:27;;;;;;;32.55;17.75;;;;;;;;;;5115043;28;20126;-77
2021/12/09 09:33:53;;;;;;;33.90;17.38;;;;;;;;;;5133295;28;20039;-77
2021/12/09 09:36:19;;;;;;;29.60;16.67;;;;;;;;;;5115219;28;20085;-78
2021/12/09 09:38:48;;;;;;;33.83;17.38;;;;;;;;;;5098213;28;20074;-78
2021/12/09 09:41:17;;;;;;;26.75;16.52;;;;;;;;;;5133333;28;20125;-79
2021/12/09 09:46:13;;;;;;;32.63;16.75;;;;;;;;;;5133242;28;20131;-77
2021/12/09 09:48:40;;;;;;;32.15;16.38;;;;;;;;;;5132946;28;20744;-77
2021/12/09 09:51:09;;;;;;;38.03;17.50;;;;;;;;;;5133474;28;20388;-78
2021/12/09 09:53:36;;;;;;;27.42;16.00;;;;;;;;;;5115190;28;20062;-77
2021/12/09 09:56:08;;;;;;;26.30;15.15;;;;;;;;;;5133217;28;20449;-77
2021/12/09 09:58:34;;;;;;;24.92;14.52;;;;;;;;;;5133427;28;20045;-77
2021/12/09 10:01:01;;;;;;;29.92;14.02;;;;;;;;;;5132630;28;20043;-77
2021/12/09 10:03:30;;;;;;;24.92;13.10;;;;;;;;;;5132820;28;20051;-77
2021/12/09 10:05:58;;;;;;;27.80;12.75;;;;;;;;;;5133240;28;20043;-77
2021/12/09 10:08:24;;;;;;;23.67;12.50;;;;;;;;;;5133055;28;20039;-77
2021/12/09 10:10:50;;;;;;;23.65;11.48;;;;;;;;;;5135127;27;20043;-78
2021/12/09 10:13:18;;;;;;;23.05;11.90;;;;;;;;;;5119206;27;20050;-77
2021/12/09 10:15:44;;;;;;;25.23;11.40;;;;;;;;;;5136730;27;20046;-77
2021/12/09 10:18:11;;;;;;;26.48;11.25;;;;;;;;;;5101933;27;20544;-78
2021/12/09 10:20:51;;;;;;;24.73;11.38;;;;;;;;;;5136925;27;20051;-78
2021/12/09 10:23:24;;;;;;;24.05;11.80;;;;;;;;;;5118874;27;20050;-78
2021/12/09 10:26:09;;;;;;;19.08;11.48;;;;;;;;;;5136781;27;20095;-77
2021/12/09 10:28:36;;;;;;;23.48;11.88;;;;;;;;;;5136915;27;20043;-78
2021/12/09 10:31:10;;;;;;;24.15;13.38;;;;;;;;;;5136821;27;20436;-78
2021/12/09 10:34:02;;;;;;;22.98;12.43;;;;;;;;;;5136699;27;20484;-77
2021/12/09 10:36:42;;;;;;;23.92;12.65;;;;;;;;;;5101075;27;20035;-77
2021/12/09 10:39:34;;;;;;;22.95;12.45;;;;;;;;;;5101359;27;20054;-77
2021/12/09 10:42:02;;;;;;;26.85;12.18;;;;;;;;;;5097259;27;20094;-77
2021/12/09 10:44:31;;;;;;;22.35;12.68;;;;;;;;;;5136416;27;20039;-77
2021/12/09 10:47:36;;;;;;;24.73;12.25;;;;;;;;;;5136302;27;20073;-77
2021/12/09 10:50:06;;;;;;;23.23;12.05;;;;;;;;;;5131928;27;20043;-77
2021/12/09 10:52:40;;;;;;;29.30;12.80;;;;;;;;;;5136435;27;20130;-78
2021/12/09 10:55:11;;;;;;;24.95;12.20;;;;;;;;;;5136243;27;20062;-78
2021/12/09 10:57:37;;;;;;;23.65;11.65;;;;;;;;;;5136286;27;20431;-76
2021/12/09 11:00:19;;;;;;;25.20;11.45;;;;;;;;;;5136135;27;20475;-77
2021/12/09 11:03:04;;;;;;;23.33;11.30;;;;;;;;;;5135770;27;20043;-77
2021/12/09 11:05:32;;;;;;;27.13;13.10;;;;;;;;;;5117890;27;20530;-77
2021/12/09 11:08:17;;;;;;;27.10;15.80;;;;;;;;;;5136141;27;20138;-77
2021/12/09 11:10:48;;;;;;;28.15;14.23;;;;;;;;;;5135661;27;20475;-79
2021/12/09 11:13:18;;;;;;;24.77;12.60;;;;;;;;;;5135786;27;20101;-78
2021/12/09 11:15:46;;;;;;;21.20;11.45;;;;;;;;;;5135727;27;20046;-78
2021/12/09 11:18:34;;;;;;;28.63;16.52;;;;;;;;;;5135678;27;20436;-78
2021/12/09 11:21:05;;;;;;;21.77;13.10;;;;;;;;;;5117088;27;20497;-78
2021/12/09 11:23:39;;;;;;;24.83;12.70;;;;;;;;;;5116704;27;20165;-78
2021/12/09 11:26:21;;;;;;;26.08;15.57;;;;;;;;;;5135636;27;20043;-77
2021/12/09 11:28:58;;;;;;;22.40;14.10;;;;;;;;;;5135922;27;20051;-78
2021/12/09 11:31:28;;;;;;;25.95;13.70;;;;;;;;;;5135650;27;20131;-79
2021/12/09 11:34:00;;;;;;;21.02;13.35;;;;;;;;;;5117295;27;20084;-78
2021/12/09 11:36:43;;;;;;;26.88;14.05;;;;;;;;;;5135381;27;20122;-79
2021/12/09 11:39:21;;;;;;;27.33;13.15;;;;;;;;;;5117524;27;20046;-78
2021/12/09 11:41:48;;;;;;;22.35;12.45;;;;;;;;;;5117433;27;20122;-79
2021/12/09 11:44:15;;;;;;;25.48;11.77;;;;;;;;;;5135317;27;20047;-79
2021/12/09 11:46:42;;;;;;;25.25;13.20;;;;;;;;;;5135209;27;20487;-78
2021/12/09 11:49:09;;;;;;;22.17;12.25;;;;;;;;;;5116906;27;20131;-78
2021/12/09 11:51:35;;;;;;;22.05;12.70;;;;;;;;;;5116655;27;20047;-78
2021/12/09 11:54:02;;;;;;;23.55;12.73;;;;;;;;;;5116853;27;20050;-80
2021/12/09 12:06:38;;;;;;;25.77;12.57;;;;;;;;;;5134953;27;20499;-79
2021/12/09 12:06:45;;;;;;;23.33;12.07;;;;;;;;;;5134768;27;20043;-79
2021/12/09 12:13:36;;;;;;;23.38;11.57;;;;;;;;;;5116395;27;20472;-78
2021/12/09 12:16:45;;;;;;;17.88;11.07;;;;;;;;;;5134607;27;20406;-79
2021/12/09 12:19:33;;;;;;;25.10;12.32;;;;;;;;;;5116458;27;20043;-78
2021/12/09 12:22:04;;;;;;;24.90;11.50;;;;;;;;;;5134574;27;20092;-77
2021/12/09 12:24:56;;;;;;;22.17;11.52;;;;;;;;;;5116377;27;20051;-78
2021/12/09 12:27:54;;;;;;;24.25;11.93;;;;;;;;;;5116445;27;20051;-78
2021/12/09 12:30:44;;;;;;;23.20;11.23;;;;;;;;;;5134407;27;20047;-79
2021/12/09 12:41:13;;;;;;;28.10;13.20;;;;;;;;;;5134065;27;20039;-79
2021/12/09 12:43:52;;;;;;;23.15;12.93;;;;;;;;;;5133829;27;20047;-79
2021/12/09 12:51:50;;;;;;;83.13;49.25;;;;;;;;;;5134014;27;20377;-79
2021/12/09 12:54:36;;;;;;;31.92;23.73;;;;;;;;;;5134178;27;20063;-78
2021/12/09 12:57:11;;;;;;;35.75;23.15;;;;;;;;;;5133972;27;20050;-79
2021/12/09 12:59:40;;;;;;;31.60;20.98;;;;;;;;;;5133656;27;20491;-79
2021/12/09 13:02:45;;;;;;;27.13;17.52;;;;;;;;;;5133493;27;20138;-79
2021/12/09 13:07:43;;;;;;;23.23;13.27;;;;;;;;;;5115694;27;20130;-77
2021/12/09 13:13:11;;;;;;;22.77;13.07;;;;;;;;;;5133834;27;20050;-79
2021/12/09 13:15:50;;;;;;;26.75;12.98;;;;;;;;;;5133794;27;20121;-79
2021/12/09 13:18:40;;;;;;;24.50;11.98;;;;;;;;;;5115519;28;20472;-79
2021/12/09 13:21:25;;;;;;;21.27;11.75;;;;;;;;;;5133326;27;20035;-79
2021/12/09 13:24:09;;;;;;;24.80;12.57;;;;;;;;;;5133618;28;20050;-79
2021/12/09 13:26:37;;;;;;;24.90;12.60;;;;;;;;;;5133574;28;20039;-78
2021/12/09 13:29:19;;;;;;;27.30;13.35;;;;;;;;;;5115491;28;20043;-78
2021/12/09 13:32:10;;;;;;;21.90;13.25;;;;;;;;;;5115386;28;20039;-78
2021/12/09 13:35:00;;;;;;;22.90;12.05;;;;;;;;;;5133654;28;20047;-78
2021/12/09 13:37:51;;;;;;;26.98;14.05;;;;;;;;;;5115123;28;20535;-78
2021/12/09 13:48:20;;;;;;;24.13;14.25;;;;;;;;;;5137440;27;20130;-78
2021/12/09 13:50:54;;;;;;;25.25;14.07;;;;;;;;;;5137710;27;20050;-78
2021/12/09 13:56:07;;;;;;;25.98;14.10;;;;;;;;;;5137445;27;20125;-78
2021/12/09 13:58:33;;;;;;;30.52;15.45;;;;;;;;;;5118885;27;20097;-78
2021/12/09 14:01:00;;;;;;;28.17;14.00;;;;;;;;;;5118976;27;20096;-78
2021/12/09 14:03:27;;;;;;;28.85;14.40;;;;;;;;;;5137067;27;20086;-78
2021/12/09 14:05:55;;;;;;;26.80;15.20;;;;;;;;;;5118888;27;20051;-78
2021/12/09 14:08:34;;;;;;;28.65;14.50;;;;;;;;;;5118846;27;20047;-78
2021/12/09 14:11:05;;;;;;;30.85;15.70;;;;;;;;;;5118498;27;20050;-78
2021/12/09 14:13:34;;;;;;;28.90;14.57;;;;;;;;;;5119123;27;20127;-78
2021/12/09 14:16:14;;;;;;;31.15;14.18;;;;;;;;;;5137059;27;20045;-79
2021/12/09 14:21:20;;;;;;;25.60;13.88;;;;;;;;;;5136493;27;20476;-79
2021/12/09 14:23:46;;;;;;;30.30;14.15;;;;;;;;;;5136876;27;20169;-79
2021/12/09 14:26:14;;;;;;;25.08;14.63;;;;;;;;;;5136940;27;20431;-78
2021/12/09 14:28:41;;;;;;;27.77;14.48;;;;;;;;;;5101916;27;20488;-79
2021/12/09 14:31:07;;;;;;;28.23;15.23;;;;;;;;;;5118407;27;20050;-78
2021/12/09 14:33:33;;;;;;;27.58;14.63;;;;;;;;;;5118468;27;20039;-78
2021/12/09 14:36:06;;;;;;;26.20;15.40;;;;;;;;;;5136474;27;20544;-79
2021/12/09 14:38:32;;;;;;;21.63;14.18;;;;;;;;;;5118633;27;20051;-79
2021/12/09 14:41:03;;;;;;;28.77;15.10;;;;;;;;;;5136627;27;20035;-77
2021/12/09 14:43:30;;;;;;;24.10;14.85;;;;;;;;;;5118420;27;20375;-78
2021/12/09 14:45:57;;;;;;;25.88;14.68;;;;;;;;;;5136592;27;20043;-79
2021/12/09 14:48:28;;;;;;;24.70;15.40;;;;;;;;;;5117885;27;20047;-78
2021/12/09 14:50:54;;;;;;;26.13;15.15;;;;;;;;;;5136527;27;20042;-79
2021/12/09 14:53:30;;;;;;;27.50;15.32;;;;;;;;;;5136468;27;20483;-79
2021/12/09 14:55:56;;;;;;;24.92;14.55;;;;;;;;;;5118053;27;20043;-78
2021/12/09 14:58:23;;;;;;;23.55;15.27;;;;;;;;;;5136138;27;20045;-78
2021/12/09 15:00:59;;;;;;;31.45;15.93;;;;;;;;;;5136066;27;20417;-78
2021/12/09 15:03:41;;;;;;;27.27;15.57;;;;;;;;;;5135770;27;20050;-78
2021/12/09 15:06:08;;;;;;;24.17;15.00;;;;;;;;;;5117952;27;20111;-79
2021/12/09 15:08:46;;;;;;;28.02;15.93;;;;;;;;;;5117870;27;20532;-79
2021/12/09 15:11:13;;;;;;;25.88;14.75;;;;;;;;;;5135959;27;20035;-79
2021/12/09 15:13:48;;;;;;;25.27;14.65;;;;;;;;;;5117475;27;20442;-79
2021/12/09 15:16:21;;;;;;;28.10;15.43;;;;;;;;;;5135980;27;20043;-78
2021/12/09 15:18:48;;;;;;;25.85;14.90;;;;;;;;;;5117736;27;20043;-78
2021/12/09 15:21:17;;;;;;;21.45;15.05;;;;;;;;;;5135594;27;20085;-78
2021/12/09 15:23:45;;;;;;;23.70;15.20;;;;;;;;;;5135679;27;20408;-78